Time;durP1;ratioP1;P1;durP2;ratioP2;P2;SDS_P1;SDS_P2;PMS_P1;PMS_P2;Temp;Humidity;BMP_temperature;BMP_pressure;BME280_temperature;BME280_humidity;BME280_pressure;Samples;Min_cycle;Max_cycle;Signal;HPM_P1;HPM_P2
2021/06/10 00:01:28;;;;;;;5.45;4.95;;;16.70;91.40;;;;;;6286893;22;20029;-94
2021/06/10 00:04:04;;;;;;;;;;;;;;;;;;;;;
2021/06/10 00:06:36;;;;;;;6.03;5.43;;;16.70;91.50;;;;;;6316279;22;20029;-95
2021/06/10 00:09:05;;;;;;;5.40;4.90;;;16.70;91.60;;;;;;6288852;22;20052;-94
2021/06/10 00:11:52;;;;;;;5.40;4.85;;;16.70;91.50;;;;;;6285510;22;20007;-96
2021/06/10 00:14:44;;;;;;;6.70;6.10;;;16.60;91.60;;;;;;6293600;22;20034;-95
2021/06/10 00:17:34;;;;;;;6.10;5.50;;;16.60;91.70;;;;;;6285998;22;20003;-96
2021/06/10 00:20:17;;;;;;;6.63;5.90;;;16.60;91.90;;;;;;6284943;22;20003;-94
2021/06/10 00:22:46;;;;;;;7.00;6.30;;;16.60;91.90;;;;;;6283976;22;20007;-94
2021/06/10 00:25:21;;;;;;;8.95;6.35;;;16.60;92.00;;;;;;6285751;22;20000;-93
2021/06/10 00:27:50;;;;;;;6.90;6.20;;;16.50;92.00;;;;;;6285319;22;20082;-96
2021/06/10 00:30:21;;;;;;;6.25;5.53;;;16.60;92.20;;;;;;6286662;22;20045;-94
2021/06/10 00:32:56;;;;;;;6.75;5.13;;;16.60;92.20;;;;;;6283240;22;20034;-94
2021/06/10 00:35:37;;;;;;;;;;;;;;;;;;;;;
2021/06/10 00:38:06;;;;;;;7.28;5.35;;;16.50;92.20;;;;;;6330848;22;20007;-93
2021/06/10 00:40:36;;;;;;;7.15;6.45;;;16.50;92.30;;;;;;6310183;22;19987;-93
2021/06/10 00:43:12;;;;;;;7.60;6.80;;;16.50;92.50;;;;;;6309961;22;19999;-93
2021/06/10 00:45:48;;;;;;;;;;;;;;;;;;;;;
2021/06/10 00:48:29;;;;;;;7.15;6.45;;;16.40;92.60;;;;;;6310818;22;20086;-94
2021/06/10 00:51:07;;;;;;;7.03;6.32;;;16.40;92.70;;;;;;6283551;22;20090;-94
2021/06/10 00:53:34;;;;;;;8.98;7.03;;;16.40;92.80;;;;;;6286115;22;20026;-95
2021/06/10 00:56:14;;;;;;;6.78;6.07;;;16.40;92.80;;;;;;6284677;22;20426;-95
2021/06/10 00:59:17;;;;;;;10.85;8.15;;;16.40;92.90;;;;;;6282960;22;20013;-94
2021/06/10 01:02:05;;;;;;;7.13;6.43;;;16.30;93.00;;;;;;6308605;22;20010;-94
2021/06/10 01:04:51;;;;;;;;;;;;;;;;;;;;;
2021/06/10 01:11:13;;;;;;;8.00;7.20;;;16.30;93.60;;;;;;6151179;23;20063;-93
2021/06/10 01:14:27;;;;;;;11.38;7.57;;;16.30;93.50;;;;;;6308807;22;20007;-94
2021/06/10 01:17:04;;;;;;;8.35;7.47;;;16.20;93.60;;;;;;6173535;22;20002;-94
2021/06/10 01:20:11;;;;;;;10.10;8.07;;;16.30;93.80;;;;;;6283352;22;20053;-94
2021/06/10 01:23:19;;;;;;;9.93;8.70;;;16.30;94.10;;;;;;6282685;22;20003;-95
2021/06/10 01:26:39;;;;;;;;;;;;;;;;;;;;;
2021/06/10 01:29:18;;;;;;;11.52;9.07;;;16.30;94.90;;;;;;6263870;22;20055;-94
2021/06/10 01:32:02;;;;;;;10.68;9.25;;;16.30;94.40;;;;;;6288495;22;20015;-93
2021/06/10 01:34:44;;;;;;;10.38;9.23;;;16.30;94.40;;;;;;6289732;22;20031;-94
2021/06/10 01:37:18;;;;;;;14.00;9.80;;;16.30;94.50;;;;;;6286556;22;19999;-94
2021/06/10 01:39:50;;;;;;;10.95;9.85;;;16.40;94.60;;;;;;6285234;22;20443;-95
2021/06/10 01:42:18;;;;;;;9.88;8.82;;;16.40;94.80;;;;;;6282532;22;20085;-95
2021/06/10 01:44:52;;;;;;;11.13;9.93;;;16.40;94.80;;;;;;6282303;22;20007;-93
2021/06/10 01:47:23;;;;;;;10.98;9.88;;;16.40;94.80;;;;;;6282313;22;20031;-94
2021/06/10 01:50:03;;;;;;;10.55;9.38;;;16.40;94.90;;;;;;6282633;22;20066;-93
2021/06/10 01:52:48;;;;;;;9.80;8.80;;;16.40;95.00;;;;;;6285712;22;20078;-96
2021/06/10 01:55:30;;;;;;;9.90;8.90;;;16.40;94.80;;;;;;6287515;22;20011;-94
2021/06/10 01:58:04;;;;;;;10.48;8.68;;;16.50;95.30;;;;;;6293777;22;20007;-94
2021/06/10 02:04:12;;;;;;;9.80;8.18;;;16.50;94.80;;;;;;6285334;22;19999;-95
2021/06/10 02:06:54;;;;;;;;;;;;;;;;;;;;;
2021/06/10 02:09:23;;;;;;;12.15;10.80;;;16.50;95.40;;;;;;6309785;22;20069;-94
2021/06/10 02:11:50;;;;;;;11.13;9.65;;;16.50;95.10;;;;;;6283483;22;20007;-93
2021/06/10 02:14:19;;;;;;;10.48;9.32;;;16.50;95.10;;;;;;6307852;22;19998;-92
2021/06/10 02:16:48;;;;;;;11.82;10.43;;;16.50;95.10;;;;;;6308633;22;20003;-92
2021/06/10 02:19:23;;;;;;;12.88;11.40;;;16.50;95.20;;;;;;6307227;22;19987;-93
2021/06/10 02:21:51;;;;;;;11.80;10.13;;;16.50;95.40;;;;;;6302504;22;20014;-95
2021/06/10 02:24:37;;;;;;;14.13;11.18;;;16.50;95.30;;;;;;6309138;22;19999;-94
2021/06/10 02:27:23;;;;;;;11.35;10.27;;;16.50;95.50;;;;;;6308898;22;20003;-94
2021/06/10 02:29:49;;;;;;;12.50;10.60;;;16.50;95.50;;;;;;6284062;22;20422;-93
2021/06/10 02:32:23;;;;;;;10.80;9.70;;;16.50;95.40;;;;;;6284113;22;20109;-94
2021/06/10 02:35:47;;;;;;;9.95;8.20;;;16.50;95.70;;;;;;6283842;22;20003;-95
2021/06/10 02:38:19;;;;;;;12.20;10.63;;;16.50;95.60;;;;;;6288366;22;20003;-94
2021/06/10 02:40:49;;;;;;;12.68;10.77;;;16.50;95.60;;;;;;6282725;22;20411;-93
2021/06/10 02:43:28;;;;;;;;;;;;;;;;;;;;;
2021/06/10 02:46:16;;;;;;;10.77;9.68;;;16.60;95.50;;;;;;6311754;22;20078;-96
2021/06/10 02:48:48;;;;;;;10.75;9.65;;;16.60;95.60;;;;;;6283397;22;20005;-94
2021/06/10 02:52:01;;;;;;;9.85;8.45;;;16.60;95.40;;;;;;6293711;22;20003;-95
2021/06/10 02:54:57;;;;;;;10.48;9.18;;;16.70;95.50;;;;;;6286934;22;20071;-96
2021/06/10 02:58:02;;;;;;;11.40;9.63;;;16.70;95.50;;;;;;6311676;22;20006;-95
2021/06/10 03:00:42;;;;;;;12.52;11.30;;;16.80;95.60;;;;;;6289910;22;20069;-94
2021/06/10 03:03:13;;;;;;;11.27;10.07;;;16.80;95.40;;;;;;6282238;22;20049;-94
2021/06/10 03:05:50;;;;;;;13.85;12.02;;;16.80;95.30;;;;;;6287941;22;20484;-94
2021/06/10 03:08:23;;;;;;;11.40;10.20;;;16.80;95.40;;;;;;6284661;22;20082;-94
2021/06/10 03:11:27;;;;;;;12.00;9.90;;;16.80;95.40;;;;;;6281517;22;20107;-95
2021/06/10 03:13:53;;;;;;;12.73;9.70;;;16.80;95.40;;;;;;6281993;22;20015;-94
2021/06/10 03:16:28;;;;;;;10.88;9.13;;;16.90;95.40;;;;;;6289233;22;20024;-95
2021/06/10 03:18:58;;;;;;;12.93;9.95;;;16.90;95.30;;;;;;6281466;22;20082;-94
2021/06/10 03:21:28;;;;;;;11.93;10.45;;;17.00;95.30;;;;;;6283249;22;20030;-94
2021/06/10 03:24:15;;;;;;;14.65;11.63;;;17.00;95.20;;;;;;6285784;22;20008;-96
2021/06/10 03:26:45;;;;;;;12.25;10.93;;;17.00;95.20;;;;;;6286003;22;19995;-94
2021/06/10 03:29:32;;;;;;;12.00;10.25;;;17.00;95.30;;;;;;6293420;22;19999;-95
2021/06/10 03:32:21;;;;;;;9.45;8.45;;;17.10;95.20;;;;;;6293322;22;20008;-96
2021/06/10 03:35:45;;;;;;;;;;;;;;;;;;;;;
2021/06/10 03:38:06;;;;;;;10.70;9.48;;;17.20;94.90;;;;;;6305863;22;20011;-93
2021/06/10 03:40:44;;;;;;;11.38;9.82;;;17.30;94.90;;;;;;6309991;22;20003;-94
2021/06/10 03:43:24;;;;;;;;;;;;;;;;;;;;;
2021/06/10 03:46:12;;;;;;;11.15;9.90;;;17.40;94.70;;;;;;6330672;22;19991;-94
2021/06/10 03:48:41;;;;;;;11.52;8.98;;;17.40;94.60;;;;;;6299409;22;20003;-93
2021/06/10 03:51:16;;;;;;;11.18;9.27;;;17.50;94.60;;;;;;6305250;22;19999;-92
2021/06/10 03:53:52;;;;;;;11.70;10.57;;;17.50;94.40;;;;;;6306071;22;20079;-92
2021/06/10 03:56:21;;;;;;;11.85;9.05;;;17.60;94.30;;;;;;6305705;22;20003;-94
2021/06/10 03:58:49;;;;;;;10.73;9.60;;;17.60;94.30;;;;;;6299630;22;19999;-94
2021/06/10 04:01:20;;;;;;;10.35;9.27;;;17.60;94.30;;;;;;6288350;22;20298;-95
2021/06/10 04:03:51;;;;;;;10.65;8.77;;;17.70;94.30;;;;;;6284648;22;20437;-95
2021/06/10 04:06:25;;;;;;;12.93;10.23;;;17.70;94.30;;;;;;6284765;22;19999;-94
2021/06/10 04:08:55;;;;;;;16.10;9.18;;;17.80;94.10;;;;;;6283788;22;20003;-94
2021/06/10 04:11:24;;;;;;;11.25;10.07;;;17.90;93.90;;;;;;6283676;22;20034;-95
2021/06/10 04:14:02;;;;;;;9.35;8.38;;;17.90;93.90;;;;;;6283512;22;20026;-95
2021/06/10 04:20:09;;;;;;;;;;;;;;;;;;;;;
2021/06/10 04:28:53;;;;;;;10.55;9.35;;;18.10;93.30;;;;;;6171030;23;20080;-94
2021/06/10 04:31:29;;;;;;;9.88;8.75;;;18.10;93.50;;;;;;6267718;22;20007;-95
2021/06/10 04:34:05;;;;;;;10.95;8.95;;;18.20;93.10;;;;;;6282893;22;20003;-94
2021/06/10 04:36:36;;;;;;;10.48;9.38;;;18.20;93.10;;;;;;6283903;22;20087;-94
2021/06/10 04:39:10;;;;;;;9.90;8.90;;;18.30;93.00;;;;;;6283101;22;20030;-94
2021/06/10 04:41:40;;;;;;;10.93;9.82;;;18.30;93.00;;;;;;6283308;22;20007;-94
2021/06/10 04:44:09;;;;;;;10.60;9.15;;;18.40;92.70;;;;;;6287340;22;20003;-95
2021/06/10 04:47:01;;;;;;;;;;;;;;;;;;;;;
2021/06/10 04:49:31;;;;;;;13.60;12.05;;;18.50;92.30;;;;;;6312306;22;20078;-94
2021/06/10 04:52:06;;;;;;;13.32;11.93;;;18.50;92.10;;;;;;6284698;22;20010;-94
2021/06/10 04:54:40;;;;;;;12.77;11.48;;;18.50;91.90;;;;;;6284720;22;20015;-93
2021/06/10 05:00:34;;;;;;;13.48;11.73;;;18.60;92.20;;;;;;6281458;22;20430;-94
2021/06/10 05:03:07;;;;;;;12.73;10.73;;;18.60;91.90;;;;;;6284345;22;20088;-95
2021/06/10 05:05:38;;;;;;;13.05;11.73;;;18.70;91.80;;;;;;6284576;22;20007;-95
2021/06/10 05:11:57;;;;;;;11.23;10.02;;;18.90;91.30;;;;;;6288487;22;20374;-94
2021/06/10 05:15:04;;;;;;;;;;;;;;;;;;;;;
2021/06/10 05:17:56;;;;;;;12.48;10.43;;;19.30;90.80;;;;;;6312625;22;20027;-93
2021/06/10 05:20:53;;;;;;;12.18;10.93;;;19.40;90.40;;;;;;6314244;22;20007;-94
2021/06/10 05:24:41;;;;;;;;;;;;;;;;;;;;;
2021/06/10 05:27:09;;;;;;;13.05;11.02;;;19.40;87.70;;;;;;6303849;22;20317;-95
2021/06/10 05:29:52;;;;;;;12.45;10.75;;;19.40;89.70;;;;;;6283047;22;20011;-94
2021/06/10 05:32:46;;;;;;;13.45;12.15;;;19.40;89.10;;;;;;6283561;22;20045;-94
2021/06/10 05:36:09;;;;;;;;;;;;;;;;;;;;;
2021/06/10 05:39:18;;;;;;;;;;;;;;;;;;;;;
2021/06/10 05:42:37;;;;;;;;;;;;;;;;;;;;;
2021/06/10 05:48:43;;;;;;;;;;;;;;;;;;;;;
2021/06/10 05:51:40;;;;;;;14.18;12.77;;;19.90;88.90;;;;;;6239621;23;20004;-93
2021/06/10 05:54:12;;;;;;;13.18;11.85;;;19.90;88.00;;;;;;6203870;23;20040;-95
2021/06/10 05:57:12;;;;;;;;;;;;;;;;;;;;;
2021/06/10 06:03:22;;;;;;;12.43;11.00;;;20.00;88.00;;;;;;6161222;23;20010;-95
2021/06/10 06:06:43;;;;;;;;;;;;;;;;;;;;;
2021/06/10 06:10:03;;;;;;;;;;;;;;;;;;;;;
2021/06/10 06:13:20;;;;;;;;;;;;;;;;;;;;;
2021/06/10 06:16:18;;;;;;;;;;;;;;;;;;;;;
2021/06/10 06:19:20;;;;;;;10.38;9.07;;;20.20;87.60;;;;;;6312490;22;20045;-93
2021/06/10 06:22:28;;;;;;;11.98;10.77;;;20.30;87.10;;;;;;6296040;22;19991;-94
2021/06/10 06:28:57;;;;;;;;;;;;;;;;;;;;;
2021/06/10 06:32:16;;;;;;;;;;;;;;;;;;;;;
2021/06/10 06:35:34;;;;;;;13.32;10.05;;;20.60;85.60;;;;;;6305217;22;20047;-95
2021/06/10 06:38:26;;;;;;;;;;;;;;;;;;;;;
2021/06/10 06:41:27;;;;;;;13.20;11.90;;;20.70;85.90;;;;;;6304059;22;20002;-95
2021/06/10 06:47:32;;;;;;;11.98;10.77;;;20.70;84.50;;;;;;6312726;22;19988;-95
2021/06/10 06:50:34;;;;;;;15.70;11.40;;;20.60;84.80;;;;;;6331298;22;19999;-94
2021/06/10 06:53:56;;;;;;;;;;;;;;;;;;;;;
2021/06/10 06:57:08;;;;;;;10.35;9.18;;;20.60;85.10;;;;;;6327497;22;20019;-95
2021/06/10 07:00:32;;;;;;;;;;;;;;;;;;;;;
2021/06/10 07:06:53;;;;;;;13.23;11.85;;;20.80;84.50;;;;;;6220919;23;20008;-95
2021/06/10 07:10:28;;;;;;;;;;;;;;;;;;;;;
2021/06/10 07:13:32;;;;;;;13.52;12.18;;;20.90;83.20;;;;;;6211217;23;20450;-94
2021/06/10 07:16:43;;;;;;;;;;;;;;;;;;;;;
2021/06/10 07:19:30;;;;;;;9.88;8.88;;;21.00;82.90;;;;;;6213831;23;20028;-96
2021/06/10 07:22:32;;;;;;;10.88;9.70;;;21.10;82.50;;;;;;6216015;23;20005;-95
2021/06/10 07:25:24;;;;;;;11.50;10.40;;;21.40;80.20;;;;;;6272316;22;20419;-96
2021/06/10 07:28:34;;;;;;;;;;;;;;;;;;;;;
2021/06/10 07:31:49;;;;;;;10.30;9.27;;;21.70;80.00;;;;;;6314658;22;20023;-96
2021/06/10 07:34:41;;;;;;;;;;;;;;;;;;;;;
2021/06/10 07:37:18;;;;;;;9.85;8.30;;;22.10;77.70;;;;;;6311829;22;20038;-96
2021/06/10 07:40:28;;;;;;;16.55;8.95;;;22.30;77.70;;;;;;6262687;22;20075;-95
2021/06/10 07:43:05;;;;;;;12.65;9.15;;;22.40;77.90;;;;;;6288456;22;20034;-96
2021/06/10 07:45:52;;;;;;;10.15;8.15;;;22.40;77.40;;;;;;6264718;22;20121;-95
2021/06/10 07:48:56;;;;;;;;;;;;;;;;;;;;;
2021/06/10 07:51:25;;;;;;;9.90;9.00;;;22.50;72.70;;;;;;6330221;22;20007;-93
2021/06/10 07:54:10;;;;;;;8.68;7.88;;;22.50;75.40;;;;;;6303675;22;20019;-92
2021/06/10 08:00:15;;;;;;;8.32;7.53;;;22.70;75.60;;;;;;6286219;22;20034;-93
2021/06/10 08:03:31;;;;;;;7.65;6.90;;;22.90;70.60;;;;;;6287400;22;20008;-94
2021/06/10 08:06:20;;;;;;;;;;;;;;;;;;;;;
2021/06/10 08:09:31;;;;;;;;;;;;;;;;;;;;;
2021/06/10 08:16:13;;;;;;;6.82;6.22;;;23.10;70.30;;;;;;6285964;22;20006;-93
2021/06/10 08:19:24;;;;;;;8.65;6.85;;;23.10;69.00;;;;;;6191595;23;20019;-94
2021/06/10 08:23:05;;;;;;;;;;;;;;;;;;;;;
2021/06/10 08:29:50;;;;;;;6.65;5.85;;;23.30;68.80;;;;;;5944436;24;20124;-94
2021/06/10 08:36:21;;;;;;;6.07;5.47;;;23.20;66.80;;;;;;5976679;24;20011;-93
2021/06/10 08:39:27;;;;;;;8.32;5.70;;;23.10;68.00;;;;;;5963038;24;20008;-95
2021/06/10 08:45:43;;;;;;;;;;;;;;;;;;;;;
2021/06/10 08:52:38;;;;;;;7.82;6.35;;;23.10;66.80;;;;;;6256441;22;20092;-96
2021/06/10 08:55:58;;;;;;;5.95;5.35;;;23.10;68.10;;;;;;6264308;23;20100;-94
2021/06/10 09:03:11;;;;;;;;;;;;;;;;;;;;;
2021/06/10 09:16:48;;;;;;;5.38;4.88;;;23.60;65.60;;;;;;6287274;22;20027;-92
2021/06/10 09:19:20;;;;;;;4.80;4.40;;;23.70;63.60;;;;;;6255355;22;20007;-93
2021/06/10 09:22:11;;;;;;;5.00;4.50;;;23.70;64.50;;;;;;6255933;22;20080;-93
2021/06/10 09:25:06;;;;;;;4.88;4.38;;;23.70;63.40;;;;;;6279927;22;19995;-92
2021/06/10 09:28:02;;;;;;;4.38;3.97;;;23.60;63.70;;;;;;6284564;22;20008;-92
2021/06/10 09:30:40;;;;;;;4.70;4.30;;;23.80;63.70;;;;;;6254476;22;20031;-93
2021/06/10 09:33:23;;;;;;;7.10;5.57;;;23.80;61.30;;;;;;6253928;22;20067;-91
2021/06/10 09:36:20;;;;;;;5.30;4.80;;;23.80;61.60;;;;;;6230672;22;20016;-92
2021/06/10 09:39:18;;;;;;;5.03;4.53;;;23.80;61.20;;;;;;6281923;22;20003;-92
2021/06/10 09:42:32;;;;;;;5.65;5.07;;;23.80;60.70;;;;;;6281498;22;20370;-92
2021/06/10 09:48:52;;;;;;;;;;;;;;;;;;;;;
2021/06/10 09:51:53;;;;;;;;;;;;;;;;;;;;;
2021/06/10 09:54:08;;;;;;;4.57;4.18;;;24.10;60.10;;;;;;6214427;23;20107;-92
2021/06/10 09:57:26;;;;;;;6.07;3.95;;;24.20;60.70;;;;;;6195690;23;20111;-94
2021/06/10 09:59:54;;;;;;;3.83;3.53;;;24.30;58.20;;;;;;6246175;22;20003;-93
2021/06/10 10:02:32;;;;;;;4.25;3.85;;;24.40;60.30;;;;;;6272427;22;20003;-92
2021/06/10 10:05:10;;;;;;;4.97;4.53;;;24.50;59.80;;;;;;6272466;22;20006;-91
2021/06/10 10:07:45;;;;;;;6.65;6.05;;;24.50;59.70;;;;;;6297203;22;20003;-92
2021/06/10 10:10:16;;;;;;;6.28;5.70;;;24.40;61.10;;;;;;6270260;22;19996;-92
2021/06/10 10:12:56;;;;;;;6.30;5.70;;;24.40;62.00;;;;;;6245365;22;20026;-92
2021/06/10 10:15:50;;;;;;;6.70;6.03;;;24.50;62.60;;;;;;6241873;22;20043;-91
2021/06/10 10:18:55;;;;;;;;;;;;;;;;;;;;;
2021/06/10 10:21:31;;;;;;;7.97;7.28;;;24.80;61.90;;;;;;6291262;22;20008;-93
2021/06/10 10:24:06;;;;;;;7.25;6.35;;;24.60;61.50;;;;;;6260319;22;20004;-93
2021/06/10 10:26:37;;;;;;;7.72;5.95;;;24.60;62.70;;;;;;6286910;22;20087;-92
2021/06/10 10:29:13;;;;;;;6.30;5.70;;;24.60;62.50;;;;;;6284627;22;20003;-93
2021/06/10 10:31:45;;;;;;;5.65;5.05;;;24.70;62.70;;;;;;6252692;22;20036;-93
2021/06/10 10:34:43;;;;;;;7.10;6.40;;;24.70;62.30;;;;;;6226962;22;20062;-92
2021/06/10 10:37:41;;;;;;;6.43;5.82;;;24.80;61.30;;;;;;6249951;22;20033;-94
2021/06/10 10:40:19;;;;;;;6.05;5.45;;;24.90;61.90;;;;;;6255446;22;20035;-92
2021/06/10 10:43:21;;;;;;;6.72;6.13;;;25.00;61.80;;;;;;6281926;22;19999;-93
2021/06/10 10:46:07;;;;;;;6.47;5.88;;;25.20;60.20;;;;;;6256267;22;20077;-92
2021/06/10 10:48:45;;;;;;;6.50;5.90;;;25.20;60.80;;;;;;6259997;22;20096;-92
2021/06/10 10:51:36;;;;;;;7.43;5.65;;;25.30;60.80;;;;;;6282100;22;19995;-92
2021/06/10 10:54:25;;;;;;;8.07;5.72;;;25.40;59.90;;;;;;6283789;22;20000;-92
2021/06/10 10:57:30;;;;;;;7.38;6.50;;;25.40;60.40;;;;;;6289728;22;20000;-93
2021/06/10 11:00:13;;;;;;;;;;;;;;;;;;;;;
2021/06/10 11:03:19;;;;;;;6.53;5.82;;;25.40;59.10;;;;;;6285062;22;20133;-93
2021/06/10 11:05:47;;;;;;;5.72;5.22;;;25.40;59.20;;;;;;6254093;22;20019;-92
2021/06/10 11:08:14;;;;;;;5.43;4.93;;;25.50;59.60;;;;;;6282429;22;19999;-90
2021/06/10 11:10:49;;;;;;;7.97;5.78;;;25.50;59.10;;;;;;6253850;22;20023;-92
2021/06/10 11:13:28;;;;;;;6.53;5.35;;;25.60;58.20;;;;;;6284955;22;20019;-92
2021/06/10 11:16:13;;;;;;;5.80;5.20;;;25.60;56.90;;;;;;6243220;22;20057;-92
2021/06/10 11:19:09;;;;;;;5.53;5.03;;;25.60;58.00;;;;;;6269895;22;20018;-93
2021/06/10 11:21:56;;;;;;;5.40;4.90;;;25.60;57.00;;;;;;6268204;22;20000;-92
2021/06/10 11:24:26;;;;;;;5.00;4.60;;;25.70;55.40;;;;;;6257069;22;20000;-92
2021/06/10 11:27:13;;;;;;;5.95;4.90;;;25.60;56.00;;;;;;6260978;22;19996;-93
2021/06/10 11:30:17;;;;;;;4.80;4.35;;;25.50;56.30;;;;;;6229357;22;20008;-92
2021/06/10 11:33:04;;;;;;;;;;;25.40;56.00;;;;;;6256361;22;20004;-91
2021/06/10 11:36:05;;;;;;;4.82;4.03;;;25.30;57.50;;;;;;6259131;22;19938;-91
2021/06/10 11:38:52;;;;;;;6.30;4.63;;;25.30;57.30;;;;;;6254580;22;20034;-92
2021/06/10 11:41:22;;;;;;;5.68;4.53;;;25.30;56.60;;;;;;6255579;22;20035;-91
2021/06/10 11:43:57;;;;;;;7.45;5.57;;;25.30;57.90;;;;;;6254819;22;20010;-93
2021/06/10 11:46:34;;;;;;;5.65;4.85;;;25.20;58.50;;;;;;6249840;22;20011;-92
2021/06/10 11:49:04;;;;;;;5.97;5.38;;;25.10;59.40;;;;;;6257167;22;19996;-92
2021/06/10 11:51:36;;;;;;;8.23;6.07;;;24.90;59.80;;;;;;6290649;22;20006;-93
2021/06/10 11:54:15;;;;;;;6.78;6.15;;;24.80;60.20;;;;;;6258790;22;20081;-92
2021/06/10 11:57:00;;;;;;;5.70;5.20;;;24.60;60.40;;;;;;6284436;22;20010;-91
2021/06/10 12:00:25;;;;;;;;;;;;;;;;;;;;;
2021/06/10 12:02:59;;;;;;;7.30;6.60;;;24.40;61.30;;;;;;6153950;22;20367;-92
2021/06/10 12:06:31;;;;;;;;;;;;;;;;;;;;;
2021/06/10 12:09:10;;;;;;;7.07;6.38;;;24.10;62.50;;;;;;6261798;22;20035;-91
2021/06/10 12:12:24;;;;;;;7.32;6.07;;;24.00;62.80;;;;;;6250285;22;19991;-93
2021/06/10 12:15:19;;;;;;;8.75;5.95;;;23.90;62.80;;;;;;6237558;22;20481;-92
2021/06/10 12:18:23;;;;;;;8.27;6.38;;;23.90;62.90;;;;;;6272920;22;20045;-91
2021/06/10 12:21:11;;;;;;;6.22;5.57;;;23.90;62.70;;;;;;6146068;23;20029;-90
2021/06/10 12:23:46;;;;;;;8.52;6.00;;;23.90;63.30;;;;;;6106978;23;20121;-91
2021/06/10 12:26:23;;;;;;;6.57;5.90;;;24.00;63.70;;;;;;6136401;23;20010;-92
2021/06/10 12:29:00;;;;;;;8.73;6.28;;;24.10;63.90;;;;;;6143220;23;20014;-90
2021/06/10 12:31:47;;;;;;;6.53;5.82;;;24.20;63.90;;;;;;6117839;23;20006;-91
2021/06/10 12:34:20;;;;;;;5.93;5.32;;;24.30;63.30;;;;;;6134172;23;20037;-92
2021/06/10 12:36:47;;;;;;;6.72;6.13;;;24.40;63.70;;;;;;6185920;22;20069;-91
2021/06/10 12:40:19;;;;;;;;;;;;;;;;;;;;;
2021/06/10 12:43:24;;;;;;;7.82;5.53;;;24.70;63.50;;;;;;6019285;23;20042;-89
2021/06/10 12:46:02;;;;;;;6.35;4.47;;;24.80;62.30;;;;;;6153484;22;20065;-90
2021/06/10 12:48:31;;;;;;;4.28;3.88;;;24.70;61.10;;;;;;6254613;22;19999;-91
2021/06/10 12:51:25;;;;;;;4.43;4.03;;;24.50;59.60;;;;;;6256093;22;20011;-89
2021/06/10 12:54:11;;;;;;;5.82;3.95;;;24.20;59.80;;;;;;6254091;22;20035;-90
2021/06/10 12:56:50;;;;;;;3.83;3.40;;;24.00;59.80;;;;;;6283412;22;20411;-90
2021/06/10 12:59:46;;;;;;;4.55;3.58;;;24.10;59.40;;;;;;6257001;22;20003;-90
2021/06/10 13:02:25;;;;;;;3.83;3.42;;;24.20;58.30;;;;;;6285202;22;20363;-89
2021/06/10 13:08:07;;;;;;;;;;;;;;;;;;;;;
2021/06/10 13:10:56;;;;;;;2.90;2.60;;;24.20;58.40;;;;;;6282853;22;20034;-91
2021/06/10 13:13:39;;;;;;;3.25;2.95;;;24.30;57.60;;;;;;6254726;22;20020;-91
2021/06/10 13:16:16;;;;;;;4.18;3.40;;;24.40;57.80;;;;;;6252731;22;20097;-89
2021/06/10 13:18:45;;;;;;;3.00;2.70;;;24.20;58.40;;;;;;6258855;22;20031;-90
2021/06/10 13:21:17;;;;;;;3.50;3.20;;;23.90;59.10;;;;;;6231236;22;20010;-91
2021/06/10 13:23:53;;;;;;;3.38;2.97;;;23.80;59.70;;;;;;6284210;22;20078;-90
2021/06/10 13:26:44;;;;;;;3.38;2.47;;;23.50;60.50;;;;;;6256031;22;20065;-90
2021/06/10 13:29:15;;;;;;;3.30;3.03;;;23.30;61.30;;;;;;6258990;22;20003;-91
2021/06/10 13:31:51;;;;;;;2.78;2.58;;;23.30;61.10;;;;;;6258162;22;20015;-91
2021/06/10 13:34:47;;;;;;;8.52;3.00;;;23.10;60.30;;;;;;6283463;22;20018;-92
2021/06/10 13:37:33;;;;;;;3.10;2.53;;;23.00;59.90;;;;;;6279820;22;20012;-92
2021/06/10 13:40:39;;;;;;;3.90;2.47;;;22.80;60.10;;;;;;6255524;22;20081;-92
2021/06/10 13:43:10;;;;;;;3.78;3.28;;;22.70;60.10;;;;;;6287210;22;20003;-93
2021/06/10 13:45:39;;;;;;;4.32;2.70;;;22.50;60.60;;;;;;6233486;22;20403;-92
2021/06/10 13:48:56;;;;;;;;;;;;;;;;;;;;;
2021/06/10 13:51:34;;;;;;;3.08;2.78;;;22.10;62.00;;;;;;6261962;22;20031;-91
2021/06/10 13:54:05;;;;;;;2.88;2.58;;;21.80;62.60;;;;;;6230315;22;20037;-92
2021/06/10 13:56:34;;;;;;;3.53;3.00;;;21.70;63.10;;;;;;6259189;22;20030;-92
2021/06/10 13:59:08;;;;;;;3.45;3.15;;;21.60;63.50;;;;;;6257801;22;20000;-93
2021/06/10 14:01:45;;;;;;;;;;;;;;;;;;;;;
2021/06/10 14:04:15;;;;;;;3.15;2.15;;;21.30;63.90;;;;;;6162865;22;20446;-91
2021/06/10 14:07:03;;;;;;;2.63;2.13;;;21.20;64.00;;;;;;6228711;22;20034;-93
2021/06/10 14:09:30;;;;;;;3.13;2.83;;;21.20;64.00;;;;;;6280904;22;20070;-91
2021/06/10 14:12:00;;;;;;;3.67;2.70;;;21.10;63.80;;;;;;6276918;22;20003;-90
2021/06/10 14:14:33;;;;;;;5.88;2.80;;;21.10;63.90;;;;;;6228927;22;20035;-92
2021/06/10 14:16:59;;;;;;;2.92;2.65;;;21.10;63.90;;;;;;6234564;22;20022;-91
2021/06/10 14:19:25;;;;;;;4.68;3.20;;;21.10;63.90;;;;;;6269760;22;20048;-89
2021/06/10 14:22:23;;;;;;;3.03;2.63;;;21.10;63.80;;;;;;6243127;22;20078;-90
2021/06/10 14:24:52;;;;;;;3.40;3.10;;;21.10;63.40;;;;;;6260393;22;20483;-91
2021/06/10 14:27:19;;;;;;;4.22;2.85;;;21.10;63.80;;;;;;6268502;22;20008;-90
2021/06/10 14:32:46;;;;;;;2.75;2.47;;;21.30;63.80;;;;;;6249085;22;20097;-92
2021/06/10 14:35:14;;;;;;;3.78;2.58;;;21.40;63.80;;;;;;6257746;22;19999;-91
2021/06/10 14:41:00;;;;;;;3.92;2.58;;;21.50;63.50;;;;;;6226857;22;20010;-93
2021/06/10 14:43:29;;;;;;;3.17;2.70;;;21.50;63.70;;;;;;6232301;22;20084;-92
2021/06/10 14:45:56;;;;;;;3.83;2.78;;;21.50;63.70;;;;;;6255688;22;20027;-89
2021/06/10 14:48:35;;;;;;;2.90;2.50;;;21.50;63.80;;;;;;6256691;22;20008;-92
2021/06/10 14:51:12;;;;;;;3.00;2.70;;;21.60;63.90;;;;;;6280272;22;20000;-92
2021/06/10 14:53:52;;;;;;;2.85;2.55;;;21.60;63.90;;;;;;6253820;22;20011;-90
2021/06/10 14:56:22;;;;;;;8.90;2.77;;;21.70;64.00;;;;;;6283071;22;19996;-92
2021/06/10 14:58:48;;;;;;;3.03;2.72;;;21.80;63.70;;;;;;6253415;22;20335;-91
2021/06/10 15:01:33;;;;;;;3.55;2.92;;;21.90;63.40;;;;;;6253715;22;20019;-92
2021/06/10 15:04:08;;;;;;;2.78;2.50;;;22.00;62.80;;;;;;6253046;22;20007;-91
2021/06/10 15:06:45;;;;;;;2.97;2.47;;;22.00;63.00;;;;;;6250829;22;20079;-90
2021/06/10 15:09:15;;;;;;;2.92;2.33;;;22.10;63.20;;;;;;6276145;22;20004;-91
2021/06/10 15:11:51;;;;;;;2.67;2.20;;;22.20;63.30;;;;;;6248132;22;20031;-91
2021/06/10 15:15:09;;;;;;;3.05;2.50;;;22.20;63.30;;;;;;6251580;22;20004;-92
2021/06/10 15:18:05;;;;;;;;;;;;;;;;;;;;;
2021/06/10 15:20:37;;;;;;;2.88;2.45;;;22.20;63.20;;;;;;6288356;22;20447;-91
2021/06/10 15:23:12;;;;;;;3.20;2.78;;;22.20;63.80;;;;;;6288811;22;20091;-91
2021/06/10 15:26:22;;;;;;;4.35;2.70;;;22.20;63.90;;;;;;6286084;22;20075;-92
2021/06/10 15:29:20;;;;;;;2.70;2.50;;;22.30;63.80;;;;;;6257094;22;20010;-91
2021/06/10 15:32:18;;;;;;;4.25;2.80;;;22.40;63.70;;;;;;6255969;22;20004;-91
2021/06/10 15:34:51;;;;;;;2.60;2.40;;;22.40;63.70;;;;;;6282890;22;20020;-91
2021/06/10 15:37:22;;;;;;;3.90;2.40;;;22.50;63.90;;;;;;6281977;22;20081;-90
2021/06/10 15:39:49;;;;;;;2.35;2.15;;;22.70;63.70;;;;;;6250328;22;20000;-90
2021/06/10 15:42:18;;;;;;;2.60;2.40;;;22.80;63.50;;;;;;6251522;22;20035;-89
2021/06/10 15:44:47;;;;;;;2.72;2.30;;;22.90;63.40;;;;;;6252598;22;20370;-91
2021/06/10 15:47:37;;;;;;;3.35;3.05;;;22.90;63.60;;;;;;6276901;22;20012;-91
2021/06/10 15:50:06;;;;;;;3.47;3.17;;;23.00;64.50;;;;;;6227185;22;20008;-88
2021/06/10 15:52:36;;;;;;;3.90;3.50;;;22.90;64.60;;;;;;6278594;22;20007;-91
2021/06/10 15:55:17;;;;;;;4.03;3.40;;;22.80;64.90;;;;;;6228788;22;20031;-90
2021/06/10 15:57:48;;;;;;;3.50;3.20;;;22.80;65.20;;;;;;6278049;22;20077;-91
2021/06/10 16:00:18;;;;;;;3.50;3.00;;;22.70;65.30;;;;;;6252541;22;20357;-90
2021/06/10 16:02:59;;;;;;;3.67;3.28;;;22.70;65.40;;;;;;6250916;22;20006;-91
2021/06/10 16:05:29;;;;;;;4.22;3.75;;;22.60;66.70;;;;;;6257152;22;20007;-93
2021/06/10 16:10:43;;;;;;;3.88;3.58;;;22.50;67.20;;;;;;6260620;22;20011;-92
2021/06/10 16:13:16;;;;;;;4.28;3.80;;;22.40;67.60;;;;;;6229907;22;20024;-92
2021/06/10 16:16:10;;;;;;;4.35;3.55;;;22.30;68.10;;;;;;6291162;22;20308;-91
2021/06/10 16:18:41;;;;;;;5.07;3.60;;;22.30;68.30;;;;;;6284428;22;20038;-91
2021/06/10 16:21:11;;;;;;;5.18;4.25;;;22.10;68.70;;;;;;6271184;22;19998;-90
2021/06/10 16:24:02;;;;;;;5.97;4.35;;;22.00;69.00;;;;;;6270710;22;20023;-93
2021/06/10 16:26:34;;;;;;;5.20;4.50;;;21.90;69.60;;;;;;6263623;22;20023;-93
2021/06/10 16:29:08;;;;;;;5.00;4.27;;;21.70;69.90;;;;;;6258469;22;20004;-91
2021/06/10 16:31:43;;;;;;;7.20;4.63;;;21.60;70.30;;;;;;6232415;22;20236;-93
2021/06/10 16:34:23;;;;;;;4.90;4.40;;;21.50;70.90;;;;;;6258730;22;20630;-92
2021/06/10 16:36:49;;;;;;;6.00;5.15;;;21.40;71.40;;;;;;6258714;22;20008;-93
2021/06/10 16:39:25;;;;;;;6.40;4.60;;;21.30;72.20;;;;;;6253746;22;20118;-92
2021/06/10 16:41:57;;;;;;;4.53;4.13;;;21.20;72.30;;;;;;6253486;22;20000;-92
2021/06/10 16:44:23;;;;;;;6.95;5.38;;;21.10;72.60;;;;;;6229758;22;19999;-91
2021/06/10 16:46:57;;;;;;;6.25;5.18;;;21.00;73.80;;;;;;6249358;22;20015;-92